createdAt,value
2023-05-09T00:00:16.225Z,23.81
2023-05-09T00:01:16.797Z,23.82
2023-05-09T00:02:16.312Z,23.83
2023-05-09T00:03:16.295Z,23.81
2023-05-09T00:04:16.377Z,23.80
2023-05-09T00:05:16.643Z,23.79
2023-05-09T00:06:16.196Z,23.80
2023-05-09T00:07:16.167Z,23.82
2023-05-09T00:08:16.144Z,23.80
2023-05-09T00:09:16.119Z,23.80
2023-05-09T00:10:16.134Z,23.80
2023-05-09T00:11:16.096Z,23.79
2023-05-09T00:12:16.054Z,23.79
2023-05-09T00:13:16.107Z,23.79
2023-05-09T00:14:16.021Z,23.80
2023-05-09T00:15:16.215Z,23.80
2023-05-09T00:16:16.021Z,23.81
2023-05-09T00:17:16.053Z,23.81
2023-05-09T00:18:15.950Z,23.80
2023-05-09T00:19:15.933Z,23.82
2023-05-09T00:20:15.931Z,23.80
2023-05-09T00:21:15.923Z,23.79
2023-05-09T00:22:15.867Z,23.80
2023-05-09T00:23:15.848Z,23.81
2023-05-09T00:24:15.868Z,23.81
2023-05-09T00:25:16.012Z,23.81
2023-05-09T00:26:15.790Z,23.80
2023-05-09T00:27:15.769Z,23.80
2023-05-09T00:28:15.746Z,23.80
2023-05-09T00:29:15.734Z,23.79
2023-05-09T00:30:15.705Z,23.80
2023-05-09T00:31:15.682Z,23.81
2023-05-09T00:32:15.773Z,23.80
2023-05-09T00:33:15.742Z,23.78
2023-05-09T00:34:15.610Z,23.79
2023-05-09T00:35:15.794Z,23.79
2023-05-09T00:36:15.577Z,23.79
2023-05-09T00:37:15.539Z,23.79
2023-05-09T00:38:15.509Z,23.79
2023-05-09T00:39:15.488Z,23.78
2023-05-09T00:40:15.470Z,23.79
2023-05-09T00:41:15.470Z,23.79
2023-05-09T00:42:15.424Z,23.78
2023-05-09T00:43:15.413Z,23.78
2023-05-09T00:44:15.406Z,23.79
2023-05-09T00:45:15.591Z,23.78
2023-05-09T00:46:15.368Z,23.77
2023-05-09T00:47:15.330Z,23.77
2023-05-09T00:48:15.292Z,23.76
2023-05-09T00:49:15.368Z,23.78
2023-05-09T00:50:15.286Z,23.78
2023-05-09T00:51:15.248Z,23.78
2023-05-09T00:52:15.254Z,23.77
2023-05-09T00:53:15.206Z,23.77
2023-05-09T00:54:15.219Z,23.77
2023-05-09T00:55:15.332Z,23.76
2023-05-09T00:56:15.163Z,23.76
2023-05-09T00:57:15.141Z,23.77
2023-05-09T00:58:15.107Z,23.77
2023-05-09T00:59:17.492Z,23.78
2023-05-09T01:00:15.137Z,23.77
2023-05-09T01:01:15.215Z,23.75
2023-05-09T01:02:15.218Z,23.76
2023-05-09T01:03:15.251Z,23.76
2023-05-09T01:04:15.200Z,23.74
2023-05-09T01:05:15.679Z,23.76
2023-05-09T01:06:15.171Z,23.75
2023-05-09T01:07:15.197Z,23.76
2023-05-09T01:08:15.218Z,23.76
2023-05-09T01:09:15.193Z,23.74
2023-05-09T01:10:15.232Z,23.75
2023-05-09T01:11:15.197Z,23.75
2023-05-09T01:12:15.197Z,23.74
2023-05-09T01:13:15.275Z,23.74
2023-05-09T01:14:15.200Z,23.74
2023-05-09T01:15:15.485Z,23.74
2023-05-09T01:16:15.237Z,23.73
2023-05-09T01:17:15.203Z,23.75
2023-05-09T01:18:15.220Z,23.73
2023-05-09T01:19:15.212Z,23.75
2023-05-09T01:20:15.209Z,23.73
2023-05-09T01:21:15.377Z,23.71
2023-05-09T01:22:16.806Z,23.73
2023-05-09T01:23:15.235Z,23.74
2023-05-09T01:24:15.287Z,23.73
2023-05-09T01:25:15.689Z,23.73
2023-05-09T01:26:15.253Z,23.73
2023-05-09T01:27:15.226Z,23.73
2023-05-09T01:28:15.264Z,23.73
2023-05-09T01:29:15.283Z,23.73
2023-05-09T01:30:15.258Z,23.73
2023-05-09T01:31:15.305Z,23.72
2023-05-09T01:32:15.266Z,23.71
2023-05-09T01:33:15.299Z,23.72
2023-05-09T01:34:15.308Z,23.71
2023-05-09T01:35:15.560Z,23.71
2023-05-09T01:36:15.304Z,23.72
2023-05-09T01:37:15.412Z,23.73
2023-05-09T01:38:15.336Z,23.72
2023-05-09T01:39:15.346Z,23.71
2023-05-09T01:40:15.375Z,23.71
2023-05-09T01:41:15.375Z,23.71
2023-05-09T01:42:15.421Z,23.71
2023-05-09T01:43:15.385Z,23.72
2023-05-09T01:44:15.446Z,23.72
2023-05-09T01:45:15.943Z,23.70
2023-05-09T01:46:15.459Z,23.72
2023-05-09T01:47:15.460Z,23.72
2023-05-09T01:48:15.461Z,23.72
2023-05-09T01:49:15.482Z,23.71
2023-05-09T01:50:15.519Z,23.70
2023-05-09T01:51:15.542Z,23.71
2023-05-09T01:52:15.512Z,23.71
2023-05-09T01:53:15.591Z,23.70
2023-05-09T01:54:15.531Z,23.69
2023-05-09T01:55:15.714Z,23.68
2023-05-09T01:56:15.550Z,23.70
2023-05-09T01:57:15.582Z,23.70
2023-05-09T01:58:15.557Z,23.71
2023-05-09T01:59:15.601Z,23.70
2023-05-09T02:00:15.602Z,23.71
2023-05-09T02:01:15.772Z,23.70
2023-05-09T02:02:15.647Z,23.69
2023-05-09T02:03:15.644Z,23.69
2023-05-09T02:04:15.620Z,23.70
2023-05-09T02:05:15.897Z,23.70
2023-05-09T02:06:15.621Z,23.68
2023-05-09T02:07:15.659Z,23.70
2023-05-09T02:08:15.632Z,23.70
2023-05-09T02:09:15.752Z,23.68
2023-05-09T02:10:15.670Z,23.68
2023-05-09T02:11:15.699Z,23.69
2023-05-09T02:12:15.704Z,23.69
2023-05-09T02:13:15.758Z,23.69
2023-05-09T02:14:15.723Z,23.70
2023-05-09T02:15:15.987Z,23.70
2023-05-09T02:16:15.823Z,23.68
2023-05-09T02:17:15.754Z,23.69
2023-05-09T02:18:15.778Z,23.69
2023-05-09T02:19:15.812Z,23.69
2023-05-09T02:20:15.795Z,23.70
2023-05-09T02:21:15.881Z,23.69
2023-05-09T02:22:15.876Z,23.68
2023-05-09T02:23:15.827Z,23.68
2023-05-09T02:24:15.968Z,23.68
2023-05-09T02:25:16.281Z,23.68
2023-05-09T02:26:15.869Z,23.67
2023-05-09T02:27:15.895Z,23.68
2023-05-09T02:28:15.897Z,23.68
2023-05-09T02:29:15.898Z,23.67
2023-05-09T02:30:15.902Z,23.66
2023-05-09T02:31:15.908Z,23.68
2023-05-09T02:32:15.950Z,23.69
2023-05-09T02:33:15.946Z,23.68
2023-05-09T02:34:15.943Z,23.66
2023-05-09T02:35:16.156Z,23.65
2023-05-09T02:36:15.982Z,23.67
2023-05-09T02:37:15.998Z,23.66
2023-05-09T02:38:16.018Z,23.65
2023-05-09T02:39:16.016Z,23.67
2023-05-09T02:40:16.091Z,23.66
2023-05-09T02:41:16.154Z,23.67
2023-05-09T02:42:16.074Z,23.66
2023-05-09T02:43:16.078Z,23.65
2023-05-09T02:44:16.087Z,23.64
2023-05-09T02:45:16.276Z,23.64
2023-05-09T02:46:16.139Z,23.64
2023-05-09T02:47:16.132Z,23.65
2023-05-09T02:48:16.132Z,23.65
2023-05-09T02:49:30.875Z,23.65
2023-05-09T02:50:17.120Z,23.64
2023-05-09T02:51:16.105Z,23.65
2023-05-09T02:52:16.079Z,23.65
2023-05-09T02:53:16.052Z,23.64
2023-05-09T02:54:16.028Z,23.65
2023-05-09T02:55:16.391Z,23.65
2023-05-09T02:56:15.980Z,23.65
2023-05-09T02:57:16.042Z,23.63
2023-05-09T02:58:15.917Z,23.65
2023-05-09T02:59:15.903Z,23.65
2023-05-09T03:00:15.885Z,23.65
2023-05-09T03:01:15.885Z,23.63
2023-05-09T03:02:15.846Z,23.63
2023-05-09T03:03:15.909Z,23.64
2023-05-09T03:04:15.810Z,23.64
2023-05-09T03:05:15.970Z,23.64
2023-05-09T03:06:15.776Z,23.65
2023-05-09T03:07:15.770Z,23.65
2023-05-09T03:08:15.740Z,23.65
2023-05-09T03:09:15.744Z,23.63
2023-05-09T03:10:15.764Z,23.65
2023-05-09T03:11:15.759Z,23.65
2023-05-09T03:12:15.787Z,23.65
2023-05-09T03:13:15.891Z,23.65
2023-05-09T03:14:15.838Z,23.65
2023-05-09T03:15:15.925Z,23.65
2023-05-09T03:16:15.838Z,23.65
2023-05-09T03:17:15.855Z,23.65
2023-05-09T03:18:15.846Z,23.65
2023-05-09T03:19:15.870Z,23.64
2023-05-09T03:20:15.923Z,23.63
2023-05-09T03:21:15.903Z,23.64
2023-05-09T03:22:15.909Z,23.64
2023-05-09T03:23:15.910Z,23.64
2023-05-09T03:24:15.942Z,23.62
2023-05-09T03:25:16.201Z,23.63
2023-05-09T03:26:15.953Z,23.64
2023-05-09T03:27:15.982Z,23.63
2023-05-09T03:28:15.981Z,23.63
2023-05-09T03:29:16.112Z,23.64
2023-05-09T03:30:16.018Z,23.64
2023-05-09T03:31:16.074Z,23.63
2023-05-09T03:32:16.037Z,23.62
2023-05-09T03:33:16.050Z,23.61
2023-05-09T03:34:16.056Z,23.61
2023-05-09T03:35:16.282Z,23.63
2023-05-09T03:36:16.099Z,23.62
2023-05-09T03:37:16.097Z,23.62
2023-05-09T03:38:16.121Z,23.62
2023-05-09T03:39:16.126Z,23.62
2023-05-09T03:40:16.139Z,23.62
2023-05-09T03:41:16.215Z,23.63
2023-05-09T03:42:16.181Z,23.63
2023-05-09T03:43:16.205Z,23.62
2023-05-09T03:44:16.198Z,23.60
2023-05-09T03:45:16.448Z,23.60
2023-05-09T03:46:16.248Z,23.61
2023-05-09T03:47:16.211Z,23.61
2023-05-09T03:48:16.181Z,23.61
2023-05-09T03:49:16.162Z,23.61
2023-05-09T03:50:16.163Z,23.61
2023-05-09T03:51:16.133Z,23.61
2023-05-09T03:52:16.118Z,23.61
2023-05-09T03:53:16.103Z,23.62
2023-05-09T03:54:16.092Z,23.62
2023-05-09T03:55:16.338Z,23.61
2023-05-09T03:56:16.039Z,23.62
2023-05-09T03:57:16.024Z,23.61
2023-05-09T03:58:16.012Z,23.62
2023-05-09T03:59:15.994Z,23.62
2023-05-09T04:00:15.979Z,23.60
2023-05-09T04:01:16.070Z,23.60
2023-05-09T04:02:16.012Z,23.61
2023-05-09T04:03:16.165Z,23.61
2023-05-09T04:04:15.913Z,23.60
2023-05-09T04:05:16.171Z,23.60
2023-05-09T04:06:15.887Z,23.60
2023-05-09T04:07:15.878Z,23.60
2023-05-09T04:08:15.871Z,23.61
2023-05-09T04:09:15.840Z,23.62
2023-05-09T04:10:15.806Z,23.60
2023-05-09T04:11:15.787Z,23.60
2023-05-09T04:12:15.830Z,23.60
2023-05-09T04:13:15.864Z,23.59
2023-05-09T04:14:15.856Z,23.61
2023-05-09T04:15:16.129Z,23.59
2023-05-09T04:16:15.943Z,23.61
2023-05-09T04:17:15.964Z,23.59
2023-05-09T04:18:15.895Z,23.59
2023-05-09T04:19:16.229Z,23.59
2023-05-09T04:20:15.893Z,23.60
2023-05-09T04:21:15.917Z,23.60
2023-05-09T04:22:15.946Z,23.60
2023-05-09T04:23:15.928Z,23.59
2023-05-09T04:24:15.909Z,23.60
2023-05-09T04:25:16.245Z,23.61
2023-05-09T04:26:15.886Z,23.60
2023-05-09T04:27:15.868Z,23.59
2023-05-09T04:28:15.863Z,23.59
2023-05-09T04:29:15.840Z,23.61
2023-05-09T04:30:15.847Z,23.60
2023-05-09T04:31:15.951Z,23.60
2023-05-09T04:32:15.903Z,23.58
2023-05-09T04:33:15.888Z,23.57
2023-05-09T04:34:15.798Z,23.55
2023-05-09T04:35:18.005Z,23.58
2023-05-09T04:36:15.763Z,23.56
2023-05-09T04:37:15.762Z,23.58
2023-05-09T04:38:15.744Z,23.59
2023-05-09T04:39:15.728Z,23.58
2023-05-09T04:40:15.711Z,23.60
2023-05-09T04:41:15.695Z,23.59
2023-05-09T04:42:15.681Z,23.58
2023-05-09T04:43:15.687Z,23.58
2023-05-09T04:44:15.666Z,23.58
2023-05-09T04:45:15.899Z,23.59
2023-05-09T04:46:15.681Z,23.59
2023-05-09T04:47:15.655Z,23.57
2023-05-09T04:48:15.659Z,23.58
2023-05-09T04:49:15.720Z,23.58
2023-05-09T04:50:15.622Z,23.59
2023-05-09T04:51:15.600Z,23.59
2023-05-09T04:52:15.578Z,23.59
2023-05-09T04:53:15.592Z,23.59
2023-05-09T04:54:15.558Z,23.59
2023-05-09T04:55:15.809Z,23.58
2023-05-09T04:56:15.542Z,23.59
2023-05-09T04:57:18.576Z,23.58
2023-05-09T04:58:15.526Z,23.59
2023-05-09T04:59:15.584Z,23.59
2023-05-09T05:00:15.495Z,23.59
2023-05-09T05:01:15.494Z,23.59
2023-05-09T05:02:15.509Z,23.59
2023-05-09T05:03:15.462Z,23.57
2023-05-09T05:04:15.514Z,23.56
2023-05-09T05:05:15.553Z,23.56
2023-05-09T05:06:15.458Z,23.57
2023-05-09T05:07:15.428Z,23.58
2023-05-09T05:08:15.449Z,23.58
2023-05-09T05:09:15.406Z,23.58
2023-05-09T05:10:15.391Z,23.57
2023-05-09T05:11:15.427Z,23.57
2023-05-09T05:12:15.369Z,23.56
2023-05-09T05:13:15.387Z,23.57
2023-05-09T05:14:15.384Z,23.58
2023-05-09T05:15:15.583Z,23.56
2023-05-09T05:16:15.318Z,23.58
2023-05-09T05:17:15.357Z,23.58
2023-05-09T05:18:15.296Z,23.58
2023-05-09T05:19:15.270Z,23.60
2023-05-09T05:20:15.310Z,23.60
2023-05-09T05:21:15.338Z,23.59
2023-05-09T05:22:15.250Z,23.59
2023-05-09T05:23:15.238Z,23.60
2023-05-09T05:24:15.248Z,23.60
2023-05-09T05:25:15.618Z,23.60
2023-05-09T05:26:15.190Z,23.59
2023-05-09T05:27:15.186Z,23.59
2023-05-09T05:28:15.243Z,23.60
2023-05-09T05:29:15.184Z,23.60
2023-05-09T05:30:15.277Z,23.61
2023-05-09T05:31:15.155Z,23.62
2023-05-09T05:32:15.106Z,23.61
2023-05-09T05:33:15.104Z,23.61
2023-05-09T05:34:15.131Z,23.59
2023-05-09T05:35:15.339Z,23.55
2023-05-09T05:36:15.056Z,23.56
2023-05-09T05:37:15.127Z,23.43
2023-05-09T05:38:15.022Z,23.31
2023-05-09T05:39:14.986Z,23.21
2023-05-09T05:40:14.986Z,23.14
2023-05-09T05:41:14.981Z,23.11
2023-05-09T05:42:14.960Z,23.08
2023-05-09T05:43:14.945Z,23.06
2023-05-09T05:44:14.941Z,23.05
2023-05-09T05:45:15.170Z,23.03
2023-05-09T05:46:14.885Z,23.05
2023-05-09T05:47:14.880Z,23.04
2023-05-09T05:48:14.846Z,23.04
2023-05-09T05:49:15.159Z,23.05
2023-05-09T05:50:14.904Z,23.05
2023-05-09T05:51:14.848Z,23.10
2023-05-09T05:52:14.777Z,23.26
2023-05-09T05:53:14.869Z,23.38
2023-05-09T05:54:14.758Z,23.47
2023-05-09T05:55:14.965Z,23.57
2023-05-09T05:56:14.688Z,23.63
2023-05-09T05:57:14.720Z,23.68
2023-05-09T05:58:14.652Z,23.74
2023-05-09T05:59:14.623Z,23.78
2023-05-09T06:00:14.724Z,23.76
2023-05-09T06:01:14.593Z,23.77
2023-05-09T06:02:14.618Z,23.77
2023-05-09T06:03:14.776Z,23.83
2023-05-09T06:04:14.660Z,23.86
2023-05-09T06:05:14.775Z,23.89
2023-05-09T06:06:14.500Z,23.93
2023-05-09T06:07:14.446Z,23.96
2023-05-09T06:08:14.480Z,24.00
2023-05-09T06:09:14.487Z,24.01
2023-05-09T06:10:14.434Z,24.00
2023-05-09T06:11:14.442Z,24.04
2023-05-09T06:12:14.640Z,24.05
2023-05-09T06:13:14.381Z,24.07
2023-05-09T06:14:14.421Z,24.08
2023-05-09T06:15:15.045Z,24.11
2023-05-09T06:16:19.911Z,24.13
2023-05-09T06:17:15.272Z,24.11
2023-05-09T06:18:14.318Z,24.12
2023-05-09T06:19:14.190Z,24.14
2023-05-09T06:20:14.178Z,24.16
2023-05-09T06:21:14.893Z,24.18
2023-05-09T06:22:14.212Z,24.20
2023-05-09T06:23:14.119Z,24.22
2023-05-09T06:24:20.144Z,24.24
2023-05-09T06:25:14.354Z,24.25
2023-05-09T06:26:14.028Z,24.26
2023-05-09T06:27:13.994Z,24.26
2023-05-09T06:28:13.960Z,24.24
2023-05-09T06:29:13.933Z,24.26
2023-05-09T06:30:24.582Z,24.27
2023-05-09T06:31:14.917Z,24.29
2023-05-09T06:32:13.937Z,24.29
2023-05-09T06:33:13.929Z,24.30
2023-05-09T06:34:13.827Z,24.31
2023-05-09T06:35:13.851Z,24.31
2023-05-09T06:36:13.742Z,24.33
2023-05-09T06:37:13.795Z,24.31
2023-05-09T06:38:13.800Z,24.32
2023-05-09T06:39:13.712Z,24.35
2023-05-09T06:40:13.751Z,24.35
2023-05-09T06:41:13.793Z,24.31
2023-05-09T06:42:13.920Z,24.29
2023-05-09T06:43:13.783Z,24.24
2023-05-09T06:44:13.769Z,24.26
2023-05-09T06:45:13.961Z,24.30
2023-05-09T06:46:13.747Z,24.22
2023-05-09T06:47:13.658Z,24.24
2023-05-09T06:48:13.734Z,24.25
2023-05-09T06:49:13.650Z,24.31
2023-05-09T06:50:13.701Z,24.36
2023-05-09T06:51:13.716Z,24.38
2023-05-09T06:52:13.788Z,24.41
2023-05-09T06:53:13.774Z,24.45
2023-05-09T06:54:13.852Z,24.47
2023-05-09T06:55:14.126Z,24.51
2023-05-09T06:56:13.918Z,24.53
2023-05-09T06:57:14.004Z,24.55
2023-05-09T06:58:14.423Z,24.56
2023-05-09T06:59:14.015Z,24.53
2023-05-09T07:00:14.069Z,24.55
2023-05-09T07:01:14.170Z,24.57
2023-05-09T07:02:14.158Z,24.57
2023-05-09T07:03:14.193Z,24.57
2023-05-09T07:04:14.237Z,24.57
2023-05-09T07:05:15.204Z,24.60
2023-05-09T07:06:14.269Z,24.63
2023-05-09T07:07:14.319Z,24.64
2023-05-09T07:08:14.408Z,24.64
2023-05-09T07:09:14.381Z,24.65
2023-05-09T07:10:14.404Z,24.65
2023-05-09T07:11:14.456Z,24.66
2023-05-09T07:12:14.595Z,24.67
2023-05-09T07:13:14.742Z,24.69
2023-05-09T07:14:14.545Z,24.71
2023-05-09T07:15:18.520Z,24.73
2023-05-09T07:16:15.586Z,24.74
2023-05-09T07:17:22.867Z,24.76
2023-05-09T07:18:15.555Z,24.78
2023-05-09T07:19:14.425Z,24.79
2023-05-09T07:20:14.430Z,24.81
2023-05-09T07:21:14.368Z,24.83
2023-05-09T07:22:14.456Z,24.84
2023-05-09T07:23:14.298Z,24.85
2023-05-09T07:24:14.329Z,24.86
2023-05-09T07:25:14.422Z,24.87
2023-05-09T07:26:14.188Z,24.89
2023-05-09T07:27:14.166Z,24.91
2023-05-09T07:28:14.166Z,24.92
2023-05-09T07:29:14.280Z,24.93
2023-05-09T07:30:14.408Z,24.96
2023-05-09T07:31:14.257Z,24.96
2023-05-09T07:32:14.656Z,24.94
2023-05-09T07:33:14.316Z,24.95
2023-05-09T07:34:14.245Z,24.95
2023-05-09T07:35:15.063Z,24.96
2023-05-09T07:36:14.313Z,24.98
2023-05-09T07:37:15.432Z,24.98
2023-05-09T07:38:14.471Z,25.00
2023-05-09T07:39:14.180Z,25.01
2023-05-09T07:40:14.538Z,25.02
2023-05-09T07:41:14.114Z,25.04
2023-05-09T07:42:14.264Z,25.06
2023-05-09T07:43:14.037Z,25.06
2023-05-09T07:44:14.116Z,25.07
2023-05-09T07:45:14.557Z,25.07
2023-05-09T07:46:14.207Z,25.08
2023-05-09T07:47:14.069Z,25.09
2023-05-09T07:48:14.284Z,25.10
2023-05-09T07:49:14.058Z,25.10
2023-05-09T07:50:14.218Z,25.12
2023-05-09T07:51:14.306Z,25.14
2023-05-09T07:52:14.119Z,25.16
2023-05-09T07:53:14.094Z,25.17
2023-05-09T07:54:14.165Z,25.17
2023-05-09T07:55:14.366Z,25.16
2023-05-09T07:56:14.091Z,25.12
2023-05-09T07:57:14.057Z,25.15
2023-05-09T07:58:13.977Z,25.17
2023-05-09T07:59:13.989Z,25.18
2023-05-09T08:00:13.929Z,25.20
2023-05-09T08:01:14.060Z,25.23
2023-05-09T08:02:13.855Z,25.25
2023-05-09T08:03:13.936Z,25.26
2023-05-09T08:04:14.111Z,25.27
2023-05-09T08:05:13.982Z,25.29
2023-05-09T08:06:13.696Z,25.29
2023-05-09T08:07:13.616Z,25.29
2023-05-09T08:08:13.551Z,25.29
2023-05-09T08:09:13.560Z,25.31
2023-05-09T08:10:13.551Z,25.32
2023-05-09T08:11:13.537Z,25.33
2023-05-09T08:12:13.518Z,25.33
2023-05-09T08:13:14.992Z,25.34
2023-05-09T08:14:15.638Z,25.34
2023-05-09T08:15:13.955Z,25.34
2023-05-09T08:16:13.534Z,25.34
2023-05-09T08:17:13.585Z,25.34
2023-05-09T08:18:13.483Z,25.36
2023-05-09T08:19:13.487Z,25.36
2023-05-09T08:20:13.492Z,25.36
2023-05-09T08:21:13.478Z,25.37
2023-05-09T08:22:13.544Z,25.36
2023-05-09T08:23:13.469Z,25.38
2023-05-09T08:24:13.464Z,25.38
2023-05-09T08:25:13.684Z,25.38
2023-05-09T08:26:13.459Z,25.39
2023-05-09T08:27:13.446Z,25.39
2023-05-09T08:28:13.444Z,25.39
2023-05-09T08:29:13.426Z,25.39
2023-05-09T08:30:13.463Z,25.40
2023-05-09T08:31:13.423Z,25.38
2023-05-09T08:32:13.422Z,25.15
2023-05-09T08:33:13.567Z,24.68
2023-05-09T08:34:13.467Z,24.38
2023-05-09T08:35:13.627Z,24.34
2023-05-09T08:36:13.518Z,23.90
2023-05-09T08:37:15.205Z,23.17
2023-05-09T08:38:14.521Z,22.69
2023-05-09T08:39:13.825Z,21.90
2023-05-09T08:40:13.863Z,21.81
2023-05-09T08:41:13.646Z,21.85
2023-05-09T08:42:13.693Z,22.20
2023-05-09T08:43:13.742Z,22.45
2023-05-09T08:44:13.978Z,22.68
2023-05-09T08:45:13.944Z,22.88
2023-05-09T08:46:13.995Z,23.02
2023-05-09T08:47:13.960Z,23.21
2023-05-09T08:48:14.061Z,23.36
2023-05-09T08:49:14.253Z,23.50
2023-05-09T08:50:14.100Z,23.63
2023-05-09T08:51:13.821Z,23.75
2023-05-09T08:52:13.772Z,23.87
2023-05-09T08:53:13.774Z,23.97
2023-05-09T08:54:13.734Z,24.05
2023-05-09T08:55:13.770Z,24.14
2023-05-09T08:56:13.775Z,24.17
2023-05-09T08:57:13.818Z,24.22
2023-05-09T08:58:13.927Z,24.24
2023-05-09T08:59:13.882Z,24.25
2023-05-09T09:00:14.177Z,24.30
2023-05-09T09:01:14.085Z,24.32
2023-05-09T09:02:13.999Z,24.38
2023-05-09T09:03:14.066Z,24.42
2023-05-09T09:04:14.034Z,24.46
2023-05-09T09:05:33.992Z,24.50
2023-05-09T09:06:15.038Z,24.53
2023-05-09T09:07:14.041Z,24.58
2023-05-09T09:08:13.945Z,24.60
2023-05-09T09:09:13.998Z,24.65
2023-05-09T09:10:14.322Z,24.70
2023-05-09T09:11:13.900Z,24.74
2023-05-09T09:12:13.901Z,24.78
2023-05-09T09:13:13.878Z,24.83
2023-05-09T09:14:13.764Z,24.86
2023-05-09T09:15:13.717Z,24.90
2023-05-09T09:16:13.893Z,24.94
2023-05-09T09:17:14.480Z,24.98
2023-05-09T09:18:14.677Z,25.00
2023-05-09T09:19:13.583Z,25.04
2023-05-09T09:20:13.864Z,25.06
2023-05-09T09:21:13.701Z,25.08
2023-05-09T09:22:13.530Z,25.10
2023-05-09T09:23:13.455Z,25.14
2023-05-09T09:24:13.472Z,25.16
2023-05-09T09:25:13.355Z,25.18
2023-05-09T09:26:13.321Z,25.20
2023-05-09T09:27:13.233Z,25.21
2023-05-09T09:28:13.194Z,25.23
2023-05-09T09:29:13.171Z,25.25
2023-05-09T09:30:13.367Z,25.29
2023-05-09T09:31:13.456Z,25.30
2023-05-09T09:32:13.161Z,25.32
2023-05-09T09:33:13.203Z,25.32
2023-05-09T09:34:13.129Z,25.34
2023-05-09T09:35:13.075Z,25.26
2023-05-09T09:36:13.072Z,25.22
2023-05-09T09:37:13.167Z,25.09
2023-05-09T09:38:13.085Z,24.94
2023-05-09T09:39:13.180Z,24.86
2023-05-09T09:40:13.357Z,24.71
2023-05-09T09:41:13.133Z,24.72
2023-05-09T09:42:13.152Z,24.74
2023-05-09T09:43:13.118Z,24.74
2023-05-09T09:44:13.147Z,24.79
2023-05-09T09:45:13.158Z,24.83
2023-05-09T09:46:13.025Z,24.79
2023-05-09T09:47:13.218Z,24.83
2023-05-09T09:48:12.890Z,24.89
2023-05-09T09:49:12.833Z,24.89
2023-05-09T09:50:12.976Z,24.93
2023-05-09T09:51:12.771Z,24.98
2023-05-09T09:52:12.722Z,25.02
2023-05-09T09:53:12.809Z,25.05
2023-05-09T09:54:12.743Z,25.09
2023-05-09T09:55:12.735Z,25.12
2023-05-09T09:56:12.768Z,25.14
2023-05-09T09:57:12.765Z,25.17
2023-05-09T09:58:12.734Z,25.18
2023-05-09T09:59:12.702Z,25.19
2023-05-09T10:00:12.849Z,25.21
2023-05-09T10:01:12.674Z,25.24
2023-05-09T10:02:12.586Z,25.26
2023-05-09T10:03:12.668Z,25.27
2023-05-09T10:04:12.543Z,25.29
2023-05-09T10:05:12.455Z,25.30
2023-05-09T10:06:12.375Z,25.32
2023-05-09T10:07:14.903Z,25.29
2023-05-09T10:08:12.290Z,25.32
2023-05-09T10:09:12.330Z,25.33
2023-05-09T10:10:12.312Z,25.36
2023-05-09T10:11:12.161Z,25.39
2023-05-09T10:12:12.184Z,25.41
2023-05-09T10:13:12.180Z,25.43
2023-05-09T10:14:12.015Z,25.45
2023-05-09T10:15:11.984Z,25.46
2023-05-09T10:16:12.048Z,25.47
2023-05-09T10:17:11.929Z,25.49
2023-05-09T10:18:12.007Z,25.49
2023-05-09T10:19:11.866Z,25.50
2023-05-09T10:20:11.890Z,25.51
2023-05-09T10:21:11.712Z,25.53
2023-05-09T10:22:11.651Z,25.53
2023-05-09T10:23:11.592Z,25.54
2023-05-09T10:24:11.587Z,25.41
2023-05-09T10:25:11.598Z,25.21
2023-05-09T10:26:11.475Z,25.04
2023-05-09T10:27:11.446Z,24.97
2023-05-09T10:28:11.414Z,25.06
2023-05-09T10:29:11.395Z,25.04
2023-05-09T10:30:11.373Z,25.10
2023-05-09T10:31:11.380Z,25.15
2023-05-09T10:32:11.249Z,25.17
2023-05-09T10:33:11.240Z,25.20
2023-05-09T10:34:11.194Z,25.22
2023-05-09T10:35:12.011Z,25.25
2023-05-09T10:36:11.089Z,25.25
2023-05-09T10:37:11.032Z,25.30
2023-05-09T10:38:11.000Z,25.35
2023-05-09T10:39:10.962Z,25.38
2023-05-09T10:40:10.956Z,25.38
2023-05-09T10:41:10.954Z,25.42
2023-05-09T10:42:10.827Z,25.47
2023-05-09T10:43:10.786Z,25.50
2023-05-09T10:44:10.753Z,25.54
2023-05-09T10:45:10.761Z,25.56
2023-05-09T10:46:10.701Z,25.55
2023-05-09T10:47:10.611Z,25.55
2023-05-09T10:48:10.564Z,25.57
2023-05-09T10:49:10.524Z,25.57
2023-05-09T10:50:10.491Z,25.61
2023-05-09T10:51:10.451Z,25.62
2023-05-09T10:52:10.445Z,25.61
2023-05-09T10:53:10.393Z,25.62
2023-05-09T10:54:10.360Z,25.61
2023-05-09T10:55:10.327Z,25.60
2023-05-09T10:56:10.315Z,25.59
2023-05-09T10:57:10.406Z,25.61
2023-05-09T10:58:10.242Z,25.61
2023-05-09T10:59:10.263Z,25.62
2023-05-09T11:00:10.209Z,25.64
2023-05-09T11:01:10.219Z,25.65
2023-05-09T11:02:10.184Z,25.65
2023-05-09T11:03:10.243Z,25.65
2023-05-09T11:04:10.157Z,25.65
2023-05-09T11:05:10.117Z,25.67
2023-05-09T11:06:10.077Z,25.67
2023-05-09T11:07:10.092Z,25.66
2023-05-09T11:08:10.046Z,25.66
2023-05-09T11:09:10.042Z,25.66
2023-05-09T11:10:10.066Z,25.68
2023-05-09T11:11:09.974Z,25.67
2023-05-09T11:12:10.107Z,25.68
2023-05-09T11:13:10.081Z,25.69
2023-05-09T11:14:09.919Z,25.69
2023-05-09T11:15:09.929Z,25.69
2023-05-09T11:16:09.996Z,25.68
2023-05-09T11:17:09.830Z,25.70
2023-05-09T11:18:09.915Z,25.70
2023-05-09T11:19:09.755Z,25.70
2023-05-09T11:20:09.824Z,25.70
2023-05-09T11:21:09.823Z,25.71
2023-05-09T11:22:09.676Z,25.72
2023-05-09T11:23:09.695Z,25.71
2023-05-09T11:24:09.635Z,25.69
2023-05-09T11:25:09.620Z,25.68
2023-05-09T11:26:09.649Z,25.68
2023-05-09T11:27:09.522Z,25.66
2023-05-09T11:28:09.530Z,25.66
2023-05-09T11:29:09.642Z,25.64
2023-05-09T11:30:09.696Z,25.63
2023-05-09T11:31:09.434Z,25.63
2023-05-09T11:32:09.437Z,25.64
2023-05-09T11:33:09.633Z,25.63
2023-05-09T11:34:09.365Z,25.63
2023-05-09T11:35:09.422Z,25.62
2023-05-09T11:36:09.310Z,25.62
2023-05-09T11:37:09.316Z,25.61
2023-05-09T11:38:09.303Z,25.60
2023-05-09T11:39:09.271Z,25.59
2023-05-09T11:40:09.257Z,25.58
2023-05-09T11:41:09.216Z,25.58
2023-05-09T11:42:09.209Z,25.59
2023-05-09T11:43:09.187Z,25.58
2023-05-09T11:44:09.147Z,25.57
2023-05-09T11:45:09.604Z,25.57
2023-05-09T11:46:09.140Z,25.58
2023-05-09T11:47:09.115Z,25.55
2023-05-09T11:48:09.147Z,25.55
2023-05-09T11:49:11.345Z,25.55
2023-05-09T11:50:09.014Z,25.54
2023-05-09T11:51:08.988Z,25.54
2023-05-09T11:52:08.950Z,25.53
2023-05-09T11:53:08.929Z,25.53
2023-05-09T11:54:08.908Z,25.54
2023-05-09T11:55:10.238Z,25.54
2023-05-09T11:56:08.823Z,25.53
2023-05-09T11:57:08.789Z,25.54
2023-05-09T11:58:08.714Z,25.55
2023-05-09T11:59:08.697Z,25.56
2023-05-09T12:00:08.665Z,25.56
2023-05-09T12:01:11.183Z,25.56
2023-05-09T12:02:08.636Z,25.56
2023-05-09T12:03:08.617Z,25.58
2023-05-09T12:04:08.565Z,25.56
2023-05-09T12:05:08.536Z,25.56
2023-05-09T12:06:08.457Z,25.55
2023-05-09T12:07:08.430Z,25.54
2023-05-09T12:08:08.399Z,25.54
2023-05-09T12:09:08.371Z,25.54
2023-05-09T12:10:08.332Z,25.54
2023-05-09T12:11:08.295Z,25.54
2023-05-09T12:12:08.281Z,25.53
2023-05-09T12:13:08.257Z,25.53
2023-05-09T12:14:08.240Z,25.53
2023-05-09T12:15:08.219Z,25.52
2023-05-09T12:16:08.227Z,25.52
2023-05-09T12:17:08.208Z,25.51
2023-05-09T12:18:08.239Z,25.50
2023-05-09T12:19:08.077Z,25.50
2023-05-09T12:20:08.145Z,25.50
2023-05-09T12:21:08.010Z,25.49
2023-05-09T12:22:07.977Z,25.50
2023-05-09T12:23:07.943Z,25.49
2023-05-09T12:24:07.908Z,25.49
2023-05-09T12:25:07.916Z,25.48
2023-05-09T12:26:07.840Z,25.48
2023-05-09T12:27:07.812Z,25.49
2023-05-09T12:28:07.775Z,25.48
2023-05-09T12:29:07.747Z,25.48
2023-05-09T12:30:07.731Z,25.49
2023-05-09T12:31:07.728Z,25.48
2023-05-09T12:32:07.659Z,25.48
2023-05-09T12:33:07.786Z,25.49
2023-05-09T12:34:07.620Z,25.51
2023-05-09T12:35:07.594Z,25.52
2023-05-09T12:36:07.562Z,25.54
2023-05-09T12:37:07.515Z,25.52
2023-05-09T12:38:07.521Z,25.53
2023-05-09T12:39:07.455Z,25.52
2023-05-09T12:40:07.450Z,25.52
2023-05-09T12:41:09.181Z,25.52
2023-05-09T12:42:08.381Z,25.53
2023-05-09T12:43:07.349Z,25.55
2023-05-09T12:44:07.326Z,25.56
2023-05-09T12:45:07.340Z,25.56
2023-05-09T12:46:07.255Z,25.57
2023-05-09T12:47:07.246Z,25.57
2023-05-09T12:48:07.266Z,25.56
2023-05-09T12:49:07.278Z,25.55
2023-05-09T12:50:07.153Z,25.53
2023-05-09T12:51:07.100Z,25.54
2023-05-09T12:52:09.896Z,25.53